sensor_id;sensor_type;location;lat;lon;timestamp;P1;durP1;ratioP1;P2;durP2;ratioP2
52978;SDS011;63430;53.186;6.598;2023-05-07T00:01:14;34.92;;;31.55;;
52978;SDS011;63430;53.186;6.598;2023-05-07T00:03:18;31.63;;;28.75;;
52978;SDS011;63430;53.186;6.598;2023-05-07T00:05:22;30.67;;;27.95;;
52978;SDS011;63430;53.186;6.598;2023-05-07T00:07:25;32.53;;;29.83;;
52978;SDS011;63430;53.186;6.598;2023-05-07T00:09:31;33.05;;;29.83;;
52978;SDS011;63430;53.186;6.598;2023-05-07T00:11:34;33.40;;;30.63;;
52978;SDS011;63430;53.186;6.598;2023-05-07T00:13:38;34.58;;;31.85;;
52978;SDS011;63430;53.186;6.598;2023-05-07T00:15:40;35.88;;;32.55;;
52978;SDS011;63430;53.186;6.598;2023-05-07T00:17:43;33.17;;;30.17;;
52978;SDS011;63430;53.186;6.598;2023-05-07T00:19:45;32.17;;;29.25;;
52978;SDS011;63430;53.186;6.598;2023-05-07T00:21:48;31.73;;;28.83;;
52978;SDS011;63430;53.186;6.598;2023-05-07T00:23:51;37.35;;;34.25;;
52978;SDS011;63430;53.186;6.598;2023-05-07T00:25:56;39.00;;;35.83;;
52978;SDS011;63430;53.186;6.598;2023-05-07T00:27:58;36.22;;;33.42;;
52978;SDS011;63430;53.186;6.598;2023-05-07T00:30:06;31.88;;;29.05;;
52978;SDS011;63430;53.186;6.598;2023-05-07T00:34:12;34.13;;;31.05;;
52978;SDS011;63430;53.186;6.598;2023-05-07T00:36:14;36.05;;;33.13;;
52978;SDS011;63430;53.186;6.598;2023-05-07T00:38:17;31.50;;;28.67;;
52978;SDS011;63430;53.186;6.598;2023-05-07T00:40:20;36.15;;;33.10;;
52978;SDS011;63430;53.186;6.598;2023-05-07T00:42:25;36.88;;;33.83;;
52978;SDS011;63430;53.186;6.598;2023-05-07T00:44:28;30.95;;;28.10;;
52978;SDS011;63430;53.186;6.598;2023-05-07T00:46:31;38.10;;;35.00;;
52978;SDS011;63430;53.186;6.598;2023-05-07T00:48:35;32.97;;;29.80;;
52978;SDS011;63430;53.186;6.598;2023-05-07T00:50:38;35.92;;;32.63;;
52978;SDS011;63430;53.186;6.598;2023-05-07T00:52:41;69.22;;;64.25;;
52978;SDS011;63430;53.186;6.598;2023-05-07T00:54:44;34.00;;;30.65;;
52978;SDS011;63430;53.186;6.598;2023-05-07T00:56:48;39.50;;;36.22;;
52978;SDS011;63430;53.186;6.598;2023-05-07T00:58:53;36.80;;;33.72;;
52978;SDS011;63430;53.186;6.598;2023-05-07T01:00:57;31.30;;;28.05;;
52978;SDS011;63430;53.186;6.598;2023-05-07T01:02:59;36.33;;;33.30;;
52978;SDS011;63430;53.186;6.598;2023-05-07T01:05:03;35.45;;;32.20;;
52978;SDS011;63430;53.186;6.598;2023-05-07T01:07:08;38.00;;;34.90;;
52978;SDS011;63430;53.186;6.598;2023-05-07T01:09:11;39.47;;;36.33;;
52978;SDS011;63430;53.186;6.598;2023-05-07T01:11:14;41.92;;;38.40;;
52978;SDS011;63430;53.186;6.598;2023-05-07T01:13:18;35.80;;;32.60;;
52978;SDS011;63430;53.186;6.598;2023-05-07T01:17:27;34.97;;;31.67;;
52978;SDS011;63430;53.186;6.598;2023-05-07T01:19:30;38.38;;;34.72;;
52978;SDS011;63430;53.186;6.598;2023-05-07T01:21:33;34.30;;;31.35;;
52978;SDS011;63430;53.186;6.598;2023-05-07T01:23:44;34.03;;;31.05;;
52978;SDS011;63430;53.186;6.598;2023-05-07T01:25:51;39.42;;;36.15;;
52978;SDS011;63430;53.186;6.598;2023-05-07T01:27:56;39.72;;;36.30;;
52978;SDS011;63430;53.186;6.598;2023-05-07T01:30:03;40.22;;;36.65;;
52978;SDS011;63430;53.186;6.598;2023-05-07T01:32:07;40.92;;;37.40;;
52978;SDS011;63430;53.186;6.598;2023-05-07T01:34:10;40.33;;;36.63;;
52978;SDS011;63430;53.186;6.598;2023-05-07T01:36:14;41.08;;;37.15;;
52978;SDS011;63430;53.186;6.598;2023-05-07T01:38:19;41.78;;;37.97;;
52978;SDS011;63430;53.186;6.598;2023-05-07T01:40:26;37.60;;;34.47;;
52978;SDS011;63430;53.186;6.598;2023-05-07T01:42:32;38.28;;;34.92;;
52978;SDS011;63430;53.186;6.598;2023-05-07T01:44:36;37.60;;;34.10;;
52978;SDS011;63430;53.186;6.598;2023-05-07T01:46:38;40.47;;;37.20;;
52978;SDS011;63430;53.186;6.598;2023-05-07T01:48:41;42.90;;;39.53;;
52978;SDS011;63430;53.186;6.598;2023-05-07T01:50:47;38.22;;;34.88;;
52978;SDS011;63430;53.186;6.598;2023-05-07T01:52:50;40.78;;;37.22;;
52978;SDS011;63430;53.186;6.598;2023-05-07T01:54:53;45.87;;;42.00;;
52978;SDS011;63430;53.186;6.598;2023-05-07T01:59:03;29.77;;;27.08;;
52978;SDS011;63430;53.186;6.598;2023-05-07T02:01:05;37.78;;;34.45;;
52978;SDS011;63430;53.186;6.598;2023-05-07T02:03:08;35.35;;;32.22;;
52978;SDS011;63430;53.186;6.598;2023-05-07T02:05:21;41.63;;;38.05;;
52978;SDS011;63430;53.186;6.598;2023-05-07T02:07:32;39.03;;;35.72;;
52978;SDS011;63430;53.186;6.598;2023-05-07T02:09:34;41.17;;;37.65;;
52978;SDS011;63430;53.186;6.598;2023-05-07T02:11:37;43.55;;;40.05;;
52978;SDS011;63430;53.186;6.598;2023-05-07T02:13:45;43.67;;;40.13;;
52978;SDS011;63430;53.186;6.598;2023-05-07T02:15:48;35.88;;;32.47;;
52978;SDS011;63430;53.186;6.598;2023-05-07T02:18:02;44.90;;;41.15;;
52978;SDS011;63430;53.186;6.598;2023-05-07T02:20:07;43.20;;;39.63;;
52978;SDS011;63430;53.186;6.598;2023-05-07T02:22:16;44.40;;;40.08;;
52978;SDS011;63430;53.186;6.598;2023-05-07T02:24:21;42.92;;;38.67;;
52978;SDS011;63430;53.186;6.598;2023-05-07T02:26:24;42.30;;;38.78;;
52978;SDS011;63430;53.186;6.598;2023-05-07T02:28:28;41.67;;;38.05;;
52978;SDS011;63430;53.186;6.598;2023-05-07T02:30:39;49.15;;;44.63;;
52978;SDS011;63430;53.186;6.598;2023-05-07T02:32:42;40.20;;;36.53;;
52978;SDS011;63430;53.186;6.598;2023-05-07T02:34:45;46.55;;;42.35;;
52978;SDS011;63430;53.186;6.598;2023-05-07T02:36:47;40.97;;;37.10;;
52978;SDS011;63430;53.186;6.598;2023-05-07T02:38:56;41.60;;;37.70;;
52978;SDS011;63430;53.186;6.598;2023-05-07T02:40:59;44.92;;;41.08;;
52978;SDS011;63430;53.186;6.598;2023-05-07T02:43:01;40.63;;;36.40;;
52978;SDS011;63430;53.186;6.598;2023-05-07T02:45:04;41.70;;;37.50;;
52978;SDS011;63430;53.186;6.598;2023-05-07T02:47:12;40.25;;;36.78;;
52978;SDS011;63430;53.186;6.598;2023-05-07T02:49:18;41.92;;;38.33;;
52978;SDS011;63430;53.186;6.598;2023-05-07T02:51:21;43.92;;;39.92;;
52978;SDS011;63430;53.186;6.598;2023-05-07T02:53:28;45.25;;;41.20;;
52978;SDS011;63430;53.186;6.598;2023-05-07T02:55:31;41.35;;;37.28;;
52978;SDS011;63430;53.186;6.598;2023-05-07T02:57:34;44.63;;;40.85;;
52978;SDS011;63430;53.186;6.598;2023-05-07T02:59:38;42.40;;;38.73;;
52978;SDS011;63430;53.186;6.598;2023-05-07T03:01:40;43.25;;;39.70;;
52978;SDS011;63430;53.186;6.598;2023-05-07T03:03:49;47.00;;;42.85;;
52978;SDS011;63430;53.186;6.598;2023-05-07T03:05:52;41.33;;;37.42;;
52978;SDS011;63430;53.186;6.598;2023-05-07T03:07:54;42.80;;;38.67;;
52978;SDS011;63430;53.186;6.598;2023-05-07T03:09:57;46.00;;;41.17;;
52978;SDS011;63430;53.186;6.598;2023-05-07T03:12:01;94.93;;;88.47;;
52978;SDS011;63430;53.186;6.598;2023-05-07T03:14:03;46.00;;;41.33;;
52978;SDS011;63430;53.186;6.598;2023-05-07T03:16:06;41.95;;;37.78;;
52978;SDS011;63430;53.186;6.598;2023-05-07T03:18:09;48.08;;;43.47;;
52978;SDS011;63430;53.186;6.598;2023-05-07T03:20:15;42.42;;;38.58;;
52978;SDS011;63430;53.186;6.598;2023-05-07T03:22:18;44.35;;;40.35;;
52978;SDS011;63430;53.186;6.598;2023-05-07T03:24:21;50.08;;;45.90;;
52978;SDS011;63430;53.186;6.598;2023-05-07T03:26:23;37.63;;;34.13;;
52978;SDS011;63430;53.186;6.598;2023-05-07T03:28:27;52.92;;;48.70;;
52978;SDS011;63430;53.186;6.598;2023-05-07T03:30:34;41.38;;;37.55;;
52978;SDS011;63430;53.186;6.598;2023-05-07T03:32:36;49.90;;;45.70;;
52978;SDS011;63430;53.186;6.598;2023-05-07T03:34:42;48.50;;;44.22;;
52978;SDS011;63430;53.186;6.598;2023-05-07T03:36:49;45.75;;;41.80;;
52978;SDS011;63430;53.186;6.598;2023-05-07T03:38:53;49.85;;;45.95;;
52978;SDS011;63430;53.186;6.598;2023-05-07T03:40:58;44.83;;;40.78;;
52978;SDS011;63430;53.186;6.598;2023-05-07T03:43:01;55.65;;;51.13;;
52978;SDS011;63430;53.186;6.598;2023-05-07T03:45:06;52.05;;;47.65;;
52978;SDS011;63430;53.186;6.598;2023-05-07T03:47:11;48.05;;;43.60;;
52978;SDS011;63430;53.186;6.598;2023-05-07T03:49:15;38.92;;;35.25;;
52978;SDS011;63430;53.186;6.598;2023-05-07T03:51:17;47.38;;;42.88;;
52978;SDS011;63430;53.186;6.598;2023-05-07T03:53:23;39.55;;;35.90;;
52978;SDS011;63430;53.186;6.598;2023-05-07T03:55:25;43.95;;;39.47;;
52978;SDS011;63430;53.186;6.598;2023-05-07T03:57:32;42.63;;;36.33;;
52978;SDS011;63430;53.186;6.598;2023-05-07T03:59:36;49.63;;;45.05;;
52978;SDS011;63430;53.186;6.598;2023-05-07T04:01:39;38.50;;;34.83;;
52978;SDS011;63430;53.186;6.598;2023-05-07T04:03:42;44.97;;;41.00;;
52978;SDS011;63430;53.186;6.598;2023-05-07T04:05:44;38.90;;;35.30;;
52978;SDS011;63430;53.186;6.598;2023-05-07T04:07:49;44.03;;;40.22;;
52978;SDS011;63430;53.186;6.598;2023-05-07T04:09:58;40.65;;;36.95;;
52978;SDS011;63430;53.186;6.598;2023-05-07T04:12:02;42.15;;;38.42;;
52978;SDS011;63430;53.186;6.598;2023-05-07T04:14:05;48.72;;;44.53;;
52978;SDS011;63430;53.186;6.598;2023-05-07T04:16:07;51.35;;;46.72;;
52978;SDS011;63430;53.186;6.598;2023-05-07T04:18:12;38.97;;;35.63;;
52978;SDS011;63430;53.186;6.598;2023-05-07T04:20:18;50.38;;;45.83;;
52978;SDS011;63430;53.186;6.598;2023-05-07T04:22:27;41.72;;;37.50;;
52978;SDS011;63430;53.186;6.598;2023-05-07T04:24:31;41.22;;;37.38;;
52978;SDS011;63430;53.186;6.598;2023-05-07T04:26:38;39.85;;;36.17;;
52978;SDS011;63430;53.186;6.598;2023-05-07T04:28:43;40.78;;;37.13;;
52978;SDS011;63430;53.186;6.598;2023-05-07T04:30:46;47.10;;;42.83;;
52978;SDS011;63430;53.186;6.598;2023-05-07T04:32:49;46.38;;;41.72;;
52978;SDS011;63430;53.186;6.598;2023-05-07T04:34:52;41.63;;;37.42;;
52978;SDS011;63430;53.186;6.598;2023-05-07T04:36:57;45.17;;;41.42;;
52978;SDS011;63430;53.186;6.598;2023-05-07T04:39:00;41.05;;;37.25;;
52978;SDS011;63430;53.186;6.598;2023-05-07T04:41:05;45.25;;;41.13;;
52978;SDS011;63430;53.186;6.598;2023-05-07T04:43:15;44.53;;;40.58;;
52978;SDS011;63430;53.186;6.598;2023-05-07T04:45:23;37.67;;;34.22;;
52978;SDS011;63430;53.186;6.598;2023-05-07T04:47:32;40.28;;;36.47;;
52978;SDS011;63430;53.186;6.598;2023-05-07T04:49:37;43.40;;;39.72;;
52978;SDS011;63430;53.186;6.598;2023-05-07T04:51:41;42.50;;;38.90;;
52978;SDS011;63430;53.186;6.598;2023-05-07T04:53:46;38.72;;;35.17;;
52978;SDS011;63430;53.186;6.598;2023-05-07T04:55:49;47.10;;;43.00;;
52978;SDS011;63430;53.186;6.598;2023-05-07T04:57:59;36.42;;;33.50;;
52978;SDS011;63430;53.186;6.598;2023-05-07T05:00:10;37.92;;;34.50;;
52978;SDS011;63430;53.186;6.598;2023-05-07T05:02:18;38.15;;;34.47;;
52978;SDS011;63430;53.186;6.598;2023-05-07T05:04:22;39.90;;;36.53;;
52978;SDS011;63430;53.186;6.598;2023-05-07T05:06:24;36.22;;;32.50;;
52978;SDS011;63430;53.186;6.598;2023-05-07T05:08:29;36.42;;;33.00;;
52978;SDS011;63430;53.186;6.598;2023-05-07T05:10:33;32.95;;;30.00;;
52978;SDS011;63430;53.186;6.598;2023-05-07T05:12:36;37.97;;;34.85;;
52978;SDS011;63430;53.186;6.598;2023-05-07T05:14:40;45.70;;;41.53;;
52978;SDS011;63430;53.186;6.598;2023-05-07T05:16:45;34.53;;;31.50;;
52978;SDS011;63430;53.186;6.598;2023-05-07T05:18:48;33.70;;;30.50;;
52978;SDS011;63430;53.186;6.598;2023-05-07T05:20:53;36.50;;;33.03;;
52978;SDS011;63430;53.186;6.598;2023-05-07T05:22:56;37.97;;;34.67;;
52978;SDS011;63430;53.186;6.598;2023-05-07T05:24:59;42.65;;;38.92;;
52978;SDS011;63430;53.186;6.598;2023-05-07T05:27:02;44.73;;;40.97;;
52978;SDS011;63430;53.186;6.598;2023-05-07T05:29:08;41.88;;;38.53;;
52978;SDS011;63430;53.186;6.598;2023-05-07T05:31:15;36.75;;;33.20;;
52978;SDS011;63430;53.186;6.598;2023-05-07T05:35:23;33.88;;;30.77;;
52978;SDS011;63430;53.186;6.598;2023-05-07T05:37:26;39.78;;;36.50;;
52978;SDS011;63430;53.186;6.598;2023-05-07T05:39:29;36.80;;;33.47;;
52978;SDS011;63430;53.186;6.598;2023-05-07T05:41:31;41.90;;;38.60;;
52978;SDS011;63430;53.186;6.598;2023-05-07T05:43:35;35.40;;;32.33;;
52978;SDS011;63430;53.186;6.598;2023-05-07T05:45:38;47.65;;;43.97;;
52978;SDS011;63430;53.186;6.598;2023-05-07T05:47:40;54.08;;;50.25;;
52978;SDS011;63430;53.186;6.598;2023-05-07T05:49:46;34.58;;;31.25;;
52978;SDS011;63430;53.186;6.598;2023-05-07T05:51:50;33.78;;;30.67;;
52978;SDS011;63430;53.186;6.598;2023-05-07T05:53:54;43.08;;;39.53;;
52978;SDS011;63430;53.186;6.598;2023-05-07T05:55:58;43.90;;;40.35;;
52978;SDS011;63430;53.186;6.598;2023-05-07T05:58:01;36.53;;;33.33;;
52978;SDS011;63430;53.186;6.598;2023-05-07T06:00:08;41.60;;;37.97;;
52978;SDS011;63430;53.186;6.598;2023-05-07T06:02:21;35.53;;;32.55;;
52978;SDS011;63430;53.186;6.598;2023-05-07T06:04:24;36.25;;;33.25;;
52978;SDS011;63430;53.186;6.598;2023-05-07T06:06:32;40.55;;;37.40;;
52978;SDS011;63430;53.186;6.598;2023-05-07T06:08:36;33.05;;;30.00;;
52978;SDS011;63430;53.186;6.598;2023-05-07T06:10:39;34.05;;;31.15;;
52978;SDS011;63430;53.186;6.598;2023-05-07T06:12:42;33.42;;;30.45;;
52978;SDS011;63430;53.186;6.598;2023-05-07T06:14:45;34.78;;;31.67;;
52978;SDS011;63430;53.186;6.598;2023-05-07T06:16:48;32.35;;;29.50;;
52978;SDS011;63430;53.186;6.598;2023-05-07T06:18:50;35.60;;;32.40;;
52978;SDS011;63430;53.186;6.598;2023-05-07T06:20:53;37.70;;;34.50;;
52978;SDS011;63430;53.186;6.598;2023-05-07T06:23:04;33.08;;;30.25;;
52978;SDS011;63430;53.186;6.598;2023-05-07T06:25:08;29.35;;;26.67;;
52978;SDS011;63430;53.186;6.598;2023-05-07T06:27:11;33.47;;;30.70;;
52978;SDS011;63430;53.186;6.598;2023-05-07T06:29:15;40.65;;;37.20;;
52978;SDS011;63430;53.186;6.598;2023-05-07T06:31:18;32.80;;;29.88;;
52978;SDS011;63430;53.186;6.598;2023-05-07T06:33:37;33.45;;;30.40;;
52978;SDS011;63430;53.186;6.598;2023-05-07T06:35:41;34.10;;;31.23;;
52978;SDS011;63430;53.186;6.598;2023-05-07T06:37:44;30.83;;;27.80;;
52978;SDS011;63430;53.186;6.598;2023-05-07T06:39:54;30.45;;;27.38;;
52978;SDS011;63430;53.186;6.598;2023-05-07T06:41:59;30.98;;;28.15;;
52978;SDS011;63430;53.186;6.598;2023-05-07T06:44:06;28.98;;;26.25;;
52978;SDS011;63430;53.186;6.598;2023-05-07T06:46:20;37.17;;;34.03;;
52978;SDS011;63430;53.186;6.598;2023-05-07T06:48:23;31.40;;;28.80;;
52978;SDS011;63430;53.186;6.598;2023-05-07T06:50:33;33.38;;;30.52;;
52978;SDS011;63430;53.186;6.598;2023-05-07T06:52:36;39.92;;;36.70;;
52978;SDS011;63430;53.186;6.598;2023-05-07T06:54:39;40.20;;;36.97;;
52978;SDS011;63430;53.186;6.598;2023-05-07T06:56:45;37.55;;;33.85;;
52978;SDS011;63430;53.186;6.598;2023-05-07T06:58:48;34.15;;;30.90;;
52978;SDS011;63430;53.186;6.598;2023-05-07T07:00:52;33.45;;;30.20;;
52978;SDS011;63430;53.186;6.598;2023-05-07T07:02:55;41.78;;;38.67;;
52978;SDS011;63430;53.186;6.598;2023-05-07T07:05:01;34.78;;;31.80;;
52978;SDS011;63430;53.186;6.598;2023-05-07T07:07:06;34.60;;;31.33;;
52978;SDS011;63430;53.186;6.598;2023-05-07T07:09:09;41.50;;;38.03;;
52978;SDS011;63430;53.186;6.598;2023-05-07T07:11:12;38.58;;;35.25;;
52978;SDS011;63430;53.186;6.598;2023-05-07T07:13:20;31.63;;;28.75;;
52978;SDS011;63430;53.186;6.598;2023-05-07T07:15:23;31.25;;;28.55;;
52978;SDS011;63430;53.186;6.598;2023-05-07T07:17:28;33.60;;;30.38;;
52978;SDS011;63430;53.186;6.598;2023-05-07T07:19:31;29.73;;;25.40;;
52978;SDS011;63430;53.186;6.598;2023-05-07T07:21:37;32.22;;;29.15;;
52978;SDS011;63430;53.186;6.598;2023-05-07T07:23:40;40.13;;;36.85;;
52978;SDS011;63430;53.186;6.598;2023-05-07T07:25:43;32.55;;;29.55;;
52978;SDS011;63430;53.186;6.598;2023-05-07T07:27:45;38.35;;;35.20;;
52978;SDS011;63430;53.186;6.598;2023-05-07T07:29:51;33.83;;;30.30;;
52978;SDS011;63430;53.186;6.598;2023-05-07T07:31:54;37.40;;;34.03;;
52978;SDS011;63430;53.186;6.598;2023-05-07T07:33:57;29.77;;;26.90;;
52978;SDS011;63430;53.186;6.598;2023-05-07T07:36:00;33.63;;;30.52;;
52978;SDS011;63430;53.186;6.598;2023-05-07T07:38:02;30.17;;;27.08;;
52978;SDS011;63430;53.186;6.598;2023-05-07T07:40:06;43.45;;;39.78;;
52978;SDS011;63430;53.186;6.598;2023-05-07T07:42:11;34.58;;;31.15;;
52978;SDS011;63430;53.186;6.598;2023-05-07T07:44:13;33.40;;;29.73;;
52978;SDS011;63430;53.186;6.598;2023-05-07T07:46:23;32.20;;;29.15;;
52978;SDS011;63430;53.186;6.598;2023-05-07T07:48:27;35.17;;;31.50;;
52978;SDS011;63430;53.186;6.598;2023-05-07T07:50:30;35.47;;;32.50;;
52978;SDS011;63430;53.186;6.598;2023-05-07T07:52:48;38.05;;;34.95;;
52978;SDS011;63430;53.186;6.598;2023-05-07T07:54:51;33.63;;;30.13;;
52978;SDS011;63430;53.186;6.598;2023-05-07T07:56:55;31.98;;;28.85;;
52978;SDS011;63430;53.186;6.598;2023-05-07T07:58:58;36.53;;;33.40;;
52978;SDS011;63430;53.186;6.598;2023-05-07T08:01:02;34.08;;;30.83;;
52978;SDS011;63430;53.186;6.598;2023-05-07T08:03:08;31.50;;;28.52;;
52978;SDS011;63430;53.186;6.598;2023-05-07T08:05:15;40.75;;;37.00;;
52978;SDS011;63430;53.186;6.598;2023-05-07T08:07:18;37.95;;;34.45;;
52978;SDS011;63430;53.186;6.598;2023-05-07T08:09:26;32.65;;;29.58;;
52978;SDS011;63430;53.186;6.598;2023-05-07T08:11:32;33.85;;;30.63;;
52978;SDS011;63430;53.186;6.598;2023-05-07T08:13:35;38.08;;;34.72;;
52978;SDS011;63430;53.186;6.598;2023-05-07T08:15:38;30.80;;;25.60;;
52978;SDS011;63430;53.186;6.598;2023-05-07T08:17:43;30.67;;;27.85;;
52978;SDS011;63430;53.186;6.598;2023-05-07T08:19:49;34.67;;;31.52;;
52978;SDS011;63430;53.186;6.598;2023-05-07T08:21:51;32.88;;;29.83;;
52978;SDS011;63430;53.186;6.598;2023-05-07T08:23:58;34.58;;;31.38;;
52978;SDS011;63430;53.186;6.598;2023-05-07T08:26:03;32.72;;;29.58;;
52978;SDS011;63430;53.186;6.598;2023-05-07T08:28:06;29.00;;;26.17;;
52978;SDS011;63430;53.186;6.598;2023-05-07T08:30:12;35.10;;;31.52;;
52978;SDS011;63430;53.186;6.598;2023-05-07T08:32:16;33.35;;;30.20;;
52978;SDS011;63430;53.186;6.598;2023-05-07T08:34:19;32.47;;;29.13;;
52978;SDS011;63430;53.186;6.598;2023-05-07T08:36:27;30.60;;;27.88;;
52978;SDS011;63430;53.186;6.598;2023-05-07T08:38:31;28.08;;;24.15;;
52978;SDS011;63430;53.186;6.598;2023-05-07T08:40:36;27.05;;;24.33;;
52978;SDS011;63430;53.186;6.598;2023-05-07T08:42:44;28.40;;;25.52;;
52978;SDS011;63430;53.186;6.598;2023-05-07T08:44:51;30.13;;;25.08;;
52978;SDS011;63430;53.186;6.598;2023-05-07T08:46:58;45.08;;;41.45;;
52978;SDS011;63430;53.186;6.598;2023-05-07T08:49:06;29.00;;;26.13;;
52978;SDS011;63430;53.186;6.598;2023-05-07T08:53:19;29.98;;;27.20;;
52978;SDS011;63430;53.186;6.598;2023-05-07T08:55:26;27.90;;;24.13;;
52978;SDS011;63430;53.186;6.598;2023-05-07T08:57:31;30.75;;;27.00;;
52978;SDS011;63430;53.186;6.598;2023-05-07T08:59:33;28.33;;;25.38;;
52978;SDS011;63430;53.186;6.598;2023-05-07T09:01:37;30.93;;;27.80;;
52978;SDS011;63430;53.186;6.598;2023-05-07T09:03:42;27.13;;;22.70;;
52978;SDS011;63430;53.186;6.598;2023-05-07T09:05:48;30.52;;;25.13;;
52978;SDS011;63430;53.186;6.598;2023-05-07T09:07:53;26.63;;;23.80;;
52978;SDS011;63430;53.186;6.598;2023-05-07T09:10:03;26.98;;;24.05;;
52978;SDS011;63430;53.186;6.598;2023-05-07T09:12:09;25.35;;;22.80;;
52978;SDS011;63430;53.186;6.598;2023-05-07T09:14:12;29.27;;;26.52;;
52978;SDS011;63430;53.186;6.598;2023-05-07T09:16:17;28.05;;;21.90;;
52978;SDS011;63430;53.186;6.598;2023-05-07T09:18:26;29.13;;;24.67;;
52978;SDS011;63430;53.186;6.598;2023-05-07T09:20:30;31.05;;;27.95;;
52978;SDS011;63430;53.186;6.598;2023-05-07T09:22:37;27.23;;;24.45;;
52978;SDS011;63430;53.186;6.598;2023-05-07T09:24:47;26.63;;;23.88;;
52978;SDS011;63430;53.186;6.598;2023-05-07T09:26:53;27.05;;;23.63;;
52978;SDS011;63430;53.186;6.598;2023-05-07T09:28:57;26.40;;;22.15;;
52978;SDS011;63430;53.186;6.598;2023-05-07T09:31:00;27.05;;;22.83;;
52978;SDS011;63430;53.186;6.598;2023-05-07T09:33:03;30.60;;;24.20;;
52978;SDS011;63430;53.186;6.598;2023-05-07T09:35:14;28.13;;;24.20;;
52978;SDS011;63430;53.186;6.598;2023-05-07T09:37:19;25.45;;;22.15;;
52978;SDS011;63430;53.186;6.598;2023-05-07T09:39:23;29.33;;;26.38;;
52978;SDS011;63430;53.186;6.598;2023-05-07T09:41:25;24.25;;;20.38;;
52978;SDS011;63430;53.186;6.598;2023-05-07T09:43:44;26.38;;;23.02;;
52978;SDS011;63430;53.186;6.598;2023-05-07T09:45:49;22.92;;;20.02;;
52978;SDS011;63430;53.186;6.598;2023-05-07T09:47:56;30.40;;;24.52;;
52978;SDS011;63430;53.186;6.598;2023-05-07T09:50:04;27.38;;;23.23;;
52978;SDS011;63430;53.186;6.598;2023-05-07T09:52:10;30.27;;;26.15;;
52978;SDS011;63430;53.186;6.598;2023-05-07T09:54:20;28.08;;;25.17;;
52978;SDS011;63430;53.186;6.598;2023-05-07T09:56:26;25.08;;;20.80;;
52978;SDS011;63430;53.186;6.598;2023-05-07T09:58:29;28.17;;;21.55;;
52978;SDS011;63430;53.186;6.598;2023-05-07T10:00:36;22.42;;;20.15;;
52978;SDS011;63430;53.186;6.598;2023-05-07T10:02:50;27.23;;;24.45;;
52978;SDS011;63430;53.186;6.598;2023-05-07T10:05:05;23.83;;;21.27;;
52978;SDS011;63430;53.186;6.598;2023-05-07T10:07:08;25.95;;;23.23;;
52978;SDS011;63430;53.186;6.598;2023-05-07T10:09:11;25.75;;;23.10;;
52978;SDS011;63430;53.186;6.598;2023-05-07T10:11:15;27.50;;;23.90;;
52978;SDS011;63430;53.186;6.598;2023-05-07T10:13:19;26.95;;;24.33;;
52978;SDS011;63430;53.186;6.598;2023-05-07T10:15:26;25.58;;;19.42;;
52978;SDS011;63430;53.186;6.598;2023-05-07T10:17:34;26.25;;;19.08;;
52978;SDS011;63430;53.186;6.598;2023-05-07T10:19:38;27.52;;;22.88;;
52978;SDS011;63430;53.186;6.598;2023-05-07T10:21:44;22.38;;;18.52;;
52978;SDS011;63430;53.186;6.598;2023-05-07T10:23:53;24.15;;;19.10;;
52978;SDS011;63430;53.186;6.598;2023-05-07T10:26:03;25.58;;;19.60;;
52978;SDS011;63430;53.186;6.598;2023-05-07T10:28:09;22.13;;;18.38;;
52978;SDS011;63430;53.186;6.598;2023-05-07T10:30:19;22.10;;;17.63;;
52978;SDS011;63430;53.186;6.598;2023-05-07T10:32:32;25.30;;;19.17;;
52978;SDS011;63430;53.186;6.598;2023-05-07T10:34:45;21.58;;;16.63;;
52978;SDS011;63430;53.186;6.598;2023-05-07T10:36:51;22.77;;;17.88;;
52978;SDS011;63430;53.186;6.598;2023-05-07T10:38:55;25.05;;;17.17;;
52978;SDS011;63430;53.186;6.598;2023-05-07T10:40:59;20.35;;;17.17;;
52978;SDS011;63430;53.186;6.598;2023-05-07T10:43:04;21.08;;;18.88;;
52978;SDS011;63430;53.186;6.598;2023-05-07T10:45:16;22.27;;;18.73;;
52978;SDS011;63430;53.186;6.598;2023-05-07T10:47:23;20.02;;;16.88;;
52978;SDS011;63430;53.186;6.598;2023-05-07T10:49:33;19.20;;;17.10;;
52978;SDS011;63430;53.186;6.598;2023-05-07T10:51:40;19.63;;;17.17;;
52978;SDS011;63430;53.186;6.598;2023-05-07T10:54:02;21.77;;;19.50;;
52978;SDS011;63430;53.186;6.598;2023-05-07T10:56:29;22.42;;;16.65;;
52978;SDS011;63430;53.186;6.598;2023-05-07T10:58:43;22.17;;;19.70;;
52978;SDS011;63430;53.186;6.598;2023-05-07T11:00:56;18.05;;;15.98;;
52978;SDS011;63430;53.186;6.598;2023-05-07T11:03:05;21.30;;;18.00;;
52978;SDS011;63430;53.186;6.598;2023-05-07T11:05:23;18.23;;;16.25;;
52978;SDS011;63430;53.186;6.598;2023-05-07T11:07:55;19.90;;;17.83;;
52978;SDS011;63430;53.186;6.598;2023-05-07T11:10:05;19.08;;;16.00;;
52978;SDS011;63430;53.186;6.598;2023-05-07T11:12:16;20.38;;;16.92;;
52978;SDS011;63430;53.186;6.598;2023-05-07T11:16:52;19.92;;;17.90;;
52978;SDS011;63430;53.186;6.598;2023-05-07T11:19:05;17.73;;;15.73;;
52978;SDS011;63430;53.186;6.598;2023-05-07T11:21:18;17.63;;;15.30;;
52978;SDS011;63430;53.186;6.598;2023-05-07T11:26:29;18.77;;;15.85;;
52978;SDS011;63430;53.186;6.598;2023-05-07T11:28:36;16.33;;;14.60;;
52978;SDS011;63430;53.186;6.598;2023-05-07T11:30:40;18.08;;;16.38;;
52978;SDS011;63430;53.186;6.598;2023-05-07T11:32:47;19.25;;;17.45;;
52978;SDS011;63430;53.186;6.598;2023-05-07T11:34:51;19.27;;;16.88;;
52978;SDS011;63430;53.186;6.598;2023-05-07T11:36:57;18.05;;;16.08;;
52978;SDS011;63430;53.186;6.598;2023-05-07T11:39:28;18.83;;;15.25;;
52978;SDS011;63430;53.186;6.598;2023-05-07T11:41:33;19.27;;;17.33;;
52978;SDS011;63430;53.186;6.598;2023-05-07T11:43:53;18.63;;;16.63;;
52978;SDS011;63430;53.186;6.598;2023-05-07T11:46:04;20.67;;;18.77;;
52978;SDS011;63430;53.186;6.598;2023-05-07T11:48:08;22.63;;;20.77;;
52978;SDS011;63430;53.186;6.598;2023-05-07T11:50:11;18.70;;;16.70;;
52978;SDS011;63430;53.186;6.598;2023-05-07T11:52:17;18.45;;;16.65;;
52978;SDS011;63430;53.186;6.598;2023-05-07T11:54:21;19.85;;;17.75;;
52978;SDS011;63430;53.186;6.598;2023-05-07T11:56:26;20.25;;;18.17;;
52978;SDS011;63430;53.186;6.598;2023-05-07T11:58:29;20.67;;;18.73;;
52978;SDS011;63430;53.186;6.598;2023-05-07T12:00:31;28.27;;;25.98;;
52978;SDS011;63430;53.186;6.598;2023-05-07T12:02:34;17.70;;;15.02;;
52978;SDS011;63430;53.186;6.598;2023-05-07T12:04:38;19.85;;;17.85;;
52978;SDS011;63430;53.186;6.598;2023-05-07T12:06:43;20.00;;;18.13;;
52978;SDS011;63430;53.186;6.598;2023-05-07T12:08:48;24.05;;;21.88;;
52978;SDS011;63430;53.186;6.598;2023-05-07T12:10:51;23.27;;;21.25;;
52978;SDS011;63430;53.186;6.598;2023-05-07T12:12:54;23.52;;;21.40;;
52978;SDS011;63430;53.186;6.598;2023-05-07T12:14:58;19.33;;;17.55;;
52978;SDS011;63430;53.186;6.598;2023-05-07T12:17:03;23.70;;;21.40;;
52978;SDS011;63430;53.186;6.598;2023-05-07T12:19:07;29.02;;;26.77;;
52978;SDS011;63430;53.186;6.598;2023-05-07T12:21:16;31.65;;;29.27;;
52978;SDS011;63430;53.186;6.598;2023-05-07T12:23:19;20.95;;;19.23;;
52978;SDS011;63430;53.186;6.598;2023-05-07T12:25:26;28.75;;;26.50;;
52978;SDS011;63430;53.186;6.598;2023-05-07T12:27:28;27.85;;;25.65;;
52978;SDS011;63430;53.186;6.598;2023-05-07T12:29:32;23.70;;;21.80;;